Kyokusho Maru — JL6605 — position and weather

sailwx.info

Track history (hours):
 
Tides and Currents Weather Stations Pressure Air Temp Water Temp Dewpoint Dewpoint Depression Visibility Wind Speed Wind Dir Waves Ship Positions

Kyokusho Maru

Last reported at 2017-Mar-29 23:30 UTC. Time now 2017-Mar-30 01:06 UTC.
Position N 34°07' E 135°08'.

Length 77 m; draft 3.5 m.

Type: Tanker. MMSI: 431501667.

Date/timePositionNaut miles runAvg speedWind from/ knotsBaromVisibWave heightAir tempDewpointWater temp
2017-Mar-29 23:30N 34°07' E 135°08'2 2.2
2017-Mar-29 22:31N 34°09' E 135°09'0 0.1
2017-Mar-29 21:31N 34°09' E 135°09'0 0.1
2017-Mar-29 20:22N 34°09' E 135°09'0 0.1
2017-Mar-29 19:25N 34°09' E 135°09'0 0.1
2017-Mar-29 18:31N 34°09' E 135°09'0 0.0
2017-Mar-29 17:28N 34°09' E 135°09'0 0.0
2017-Mar-29 16:25N 34°09' E 135°09'0 0.0
2017-Mar-29 15:31N 34°09' E 135°09'0 0.0
2017-Mar-29 14:28N 34°09' E 135°09'0 0.1
2017-Mar-29 13:31N 34°09' E 135°09'0 0.0
2017-Mar-29 11:31N 34°09' E 135°09'0 0.0
2017-Mar-29 10:28N 34°09' E 135°09'0 0.0
2017-Mar-29 09:32N 34°09' E 135°09'8 0.4
2017-Mar-28 10:31N 34°08' E 134°59'7 1.4
2017-Mar-28 05:20N 34°07' E 135°08'3 1.6
2017-Mar-28 03:31N 34°10' E 135°09'0 0.0
2017-Mar-28 02:04N 34°10' E 135°09'0 0.0
2017-Mar-28 01:25N 34°10' E 135°09'0 0.1
2017-Mar-28 00:28N 34°10' E 135°08'0 0.0
2017-Mar-27 23:19N 34°10' E 135°08'0 0.0
2017-Mar-27 22:28N 34°10' E 135°08'0 0.0
2017-Mar-27 21:31N 34°10' E 135°08'0 0.0
2017-Mar-27 20:28N 34°10' E 135°08'0 0.0
2017-Mar-27 19:31N 34°10' E 135°08'0 0.0
2017-Mar-27 18:25N 34°10' E 135°08'0 0.0
2017-Mar-27 17:31N 34°10' E 135°08'0 0.1
2017-Mar-27 16:31N 34°10' E 135°09'0 0.0
2017-Mar-27 15:31N 34°10' E 135°09'0 0.0
2017-Mar-27 14:25N 34°10' E 135°08'0 0.0
2017-Mar-27 13:22N 34°10' E 135°09'0 0.1
2017-Mar-27 12:33N 34°10' E 135°08'120 4.3
2017-Mar-26 08:30N 33°59' E 132°44'1212.3
2017-Mar-26 07:33N 33°51' E 132°34'16 0.5
2017-Mar-24 20:30N 33°44' E 132°16'1111.4
2017-Mar-24 19:32N 33°48' E 132°28'1311.6
2017-Mar-24 18:27N 33°56' E 132°40'11510.4
2017-Mar-24 07:22N 34°08' E 134°59'7 1.2
2017-Mar-24 01:28N 34°07' E 135°08'2 2.7
2017-Mar-24 00:33N 34°09' E 135°09'0 0.0
2017-Mar-23 23:32N 34°09' E 135°09'0 0.0
2017-Mar-23 22:32N 34°09' E 135°09'0 0.0
2017-Mar-23 21:32N 34°09' E 135°09'0 0.0
2017-Mar-23 20:29N 34°09' E 135°09'0 0.0
2017-Mar-23 19:32N 34°09' E 135°09'0 0.0
2017-Mar-23 18:29N 34°09' E 135°09'0 0.0
2017-Mar-23 17:32N 34°09' E 135°09'0 0.0
2017-Mar-23 16:23N 34°09' E 135°09'0 0.1
2017-Mar-23 15:32N 34°09' E 135°09'0 0.0
2017-Mar-23 14:32N 34°09' E 135°09'0 0.0
2017-Mar-23 13:08N 34°09' E 135°09'0 0.0
2017-Mar-23 12:29N 34°09' E 135°09'0 0.0
2017-Mar-23 11:32N 34°09' E 135°09'0 0.0
2017-Mar-23 10:32N 34°09' E 135°09'0 0.0
2017-Mar-23 09:32N 34°09' E 135°09'2 2.3
2017-Mar-23 08:32N 34°09' E 135°06'6 0.2
2017-Mar-22 05:33N 34°08' E 134°59'7 1.4
2017-Mar-22 00:33N 34°07' E 135°08'2 1.0
2017-Mar-21 22:23N 34°09' E 135°08'0 0.0
2017-Mar-21 21:17N 34°09' E 135°08'0 0.1
2017-Mar-21 20:32N 34°09' E 135°08'0 0.0
2017-Mar-21 19:26N 34°09' E 135°08'0 0.0
2017-Mar-21 18:26N 34°09' E 135°08'0 0.0
2017-Mar-21 17:32N 34°09' E 135°08'0 0.0
2017-Mar-21 16:32N 34°09' E 135°08'0 0.0
2017-Mar-21 15:23N 34°09' E 135°08'0 0.1
2017-Mar-21 14:29N 34°09' E 135°08'0 0.0
2017-Mar-21 13:32N 34°09' E 135°08'0 0.0
2017-Mar-21 12:23N 34°09' E 135°08'0 0.0
2017-Mar-21 11:14N 34°09' E 135°08'0 0.0
2017-Mar-21 10:32N 34°09' E 135°08'0 0.0
2017-Mar-21 09:26N 34°09' E 135°08'5 5.6
2017-Mar-21 08:33N 34°09' E 135°02'2 0.1
2017-Mar-20 08:32N 34°07' E 135°01'5 0.8
2017-Mar-20 02:33N 34°08' E 135°07'2 0.8
2017-Mar-20 00:26N 34°09' E 135°08'0 0.1
2017-Mar-19 23:32N 34°09' E 135°08'  
Track history (hours):
 
Tides and Currents Weather Stations Pressure Air Temp Water Temp Dewpoint Dewpoint Depression Visibility Wind Speed Wind Dir Waves Ship Positions

Kyokusho Maru

Last reported at 2017-Mar-29 23:30 UTC. Time now 2017-Mar-30 01:06 UTC.
Position N 34°07' E 135°08'.

Length 77 m; draft 3.5 m.

Type: Tanker. MMSI: 431501667.

Date/timePositionNaut miles runAvg speedWind from/ knotsBaromVisibWave heightAir tempDewpointWater temp
2017-Mar-29 23:30N 34°07' E 135°08'2 2.2
2017-Mar-29 22:31N 34°09' E 135°09'0 0.1
2017-Mar-29 21:31N 34°09' E 135°09'0 0.1
2017-Mar-29 20:22N 34°09' E 135°09'0 0.1
2017-Mar-29 19:25N 34°09' E 135°09'0 0.1
2017-Mar-29 18:31N 34°09' E 135°09'0 0.0
2017-Mar-29 17:28N 34°09' E 135°09'0 0.0
2017-Mar-29 16:25N 34°09' E 135°09'0 0.0
2017-Mar-29 15:31N 34°09' E 135°09'0 0.0
2017-Mar-29 14:28N 34°09' E 135°09'0 0.1
2017-Mar-29 13:31N 34°09' E 135°09'0 0.0
2017-Mar-29 11:31N 34°09' E 135°09'0 0.0
2017-Mar-29 10:28N 34°09' E 135°09'0 0.0
2017-Mar-29 09:32N 34°09' E 135°09'8 0.4
2017-Mar-28 10:31N 34°08' E 134°59'7 1.4
2017-Mar-28 05:20N 34°07' E 135°08'3 1.6
2017-Mar-28 03:31N 34°10' E 135°09'0 0.0
2017-Mar-28 02:04N 34°10' E 135°09'0 0.0
2017-Mar-28 01:25N 34°10' E 135°09'0 0.1
2017-Mar-28 00:28N 34°10' E 135°08'0 0.0
2017-Mar-27 23:19N 34°10' E 135°08'0 0.0
2017-Mar-27 22:28N 34°10' E 135°08'0 0.0
2017-Mar-27 21:31N 34°10' E 135°08'0 0.0
2017-Mar-27 20:28N 34°10' E 135°08'0 0.0
2017-Mar-27 19:31N 34°10' E 135°08'0 0.0
2017-Mar-27 18:25N 34°10' E 135°08'0 0.0
2017-Mar-27 17:31N 34°10' E 135°08'0 0.1
2017-Mar-27 16:31N 34°10' E 135°09'0 0.0
2017-Mar-27 15:31N 34°10' E 135°09'0 0.0
2017-Mar-27 14:25N 34°10' E 135°08'0 0.0
2017-Mar-27 13:22N 34°10' E 135°09'0 0.1
2017-Mar-27 12:33N 34°10' E 135°08'120 4.3
2017-Mar-26 08:30N 33°59' E 132°44'1212.3
2017-Mar-26 07:33N 33°51' E 132°34'16 0.5
2017-Mar-24 20:30N 33°44' E 132°16'1111.4
2017-Mar-24 19:32N 33°48' E 132°28'1311.6
2017-Mar-24 18:27N 33°56' E 132°40'11510.4
2017-Mar-24 07:22N 34°08' E 134°59'7 1.2
2017-Mar-24 01:28N 34°07' E 135°08'2 2.7
2017-Mar-24 00:33N 34°09' E 135°09'0 0.0
2017-Mar-23 23:32N 34°09' E 135°09'0 0.0
2017-Mar-23 22:32N 34°09' E 135°09'0 0.0
2017-Mar-23 21:32N 34°09' E 135°09'0 0.0
2017-Mar-23 20:29N 34°09' E 135°09'0 0.0
2017-Mar-23 19:32N 34°09' E 135°09'0 0.0
2017-Mar-23 18:29N 34°09' E 135°09'0 0.0
2017-Mar-23 17:32N 34°09' E 135°09'0 0.0
2017-Mar-23 16:23N 34°09' E 135°09'0 0.1
2017-Mar-23 15:32N 34°09' E 135°09'0 0.0
2017-Mar-23 14:32N 34°09' E 135°09'0 0.0
2017-Mar-23 13:08N 34°09' E 135°09'0 0.0
2017-Mar-23 12:29N 34°09' E 135°09'0 0.0
2017-Mar-23 11:32N 34°09' E 135°09'0 0.0
2017-Mar-23 10:32N 34°09' E 135°09'0 0.0
2017-Mar-23 09:32N 34°09' E 135°09'2 2.3
2017-Mar-23 08:32N 34°09' E 135°06'6 0.2
2017-Mar-22 05:33N 34°08' E 134°59'7 1.4
2017-Mar-22 00:33N 34°07' E 135°08'2 1.0
2017-Mar-21 22:23N 34°09' E 135°08'0 0.0
2017-Mar-21 21:17N 34°09' E 135°08'0 0.1
2017-Mar-21 20:32N 34°09' E 135°08'0 0.0
2017-Mar-21 19:26N 34°09' E 135°08'0 0.0
2017-Mar-21 18:26N 34°09' E 135°08'0 0.0
2017-Mar-21 17:32N 34°09' E 135°08'0 0.0
2017-Mar-21 16:32N 34°09' E 135°08'0 0.0
2017-Mar-21 15:23N 34°09' E 135°08'0 0.1
2017-Mar-21 14:29N 34°09' E 135°08'0 0.0
2017-Mar-21 13:32N 34°09' E 135°08'0 0.0
2017-Mar-21 12:23N 34°09' E 135°08'0 0.0
2017-Mar-21 11:14N 34°09' E 135°08'0 0.0
2017-Mar-21 10:32N 34°09' E 135°08'0 0.0
2017-Mar-21 09:26N 34°09' E 135°08'5 5.6
2017-Mar-21 08:33N 34°09' E 135°02'2 0.1
2017-Mar-20 08:32N 34°07' E 135°01'5 0.8
2017-Mar-20 02:33N 34°08' E 135°07'2 0.8
2017-Mar-20 00:26N 34°09' E 135°08'0 0.1
2017-Mar-19 23:32N 34°09' E 135°08'  

Dump ship's entire track history